createdAt,value
2022-12-18T00:01:34.949Z,96679.38
2022-12-18T00:04:02.933Z,96680.22
2022-12-18T00:06:30.175Z,96686.69
2022-12-18T00:08:57.744Z,96684.06
2022-12-18T00:11:25.565Z,96687.00
2022-12-18T00:13:52.154Z,96686.34
2022-12-18T00:16:21.453Z,96690.53
2022-12-18T00:18:52.106Z,96688.78
2022-12-18T00:21:18.956Z,96685.28
2022-12-18T00:23:46.082Z,96682.69
2022-12-18T00:26:31.987Z,96684.25
2022-12-18T00:29:06.597Z,96685.03
2022-12-18T00:31:33.275Z,96681.06
2022-12-18T00:34:01.337Z,96674.34
2022-12-18T00:36:29.039Z,96693.16
2022-12-18T00:38:56.311Z,96696.34
2022-12-18T00:41:41.528Z,96685.22
2022-12-18T00:44:08.601Z,96677.81
2022-12-18T00:46:35.114Z,96691.16
2022-12-18T00:49:01.919Z,96686.88
2022-12-18T00:51:28.455Z,96689.22
2022-12-18T00:53:54.862Z,96685.84
2022-12-18T00:56:21.581Z,96694.00
2022-12-18T00:58:48.040Z,96690.19
2022-12-18T01:01:14.552Z,96692.78
2022-12-18T01:03:41.785Z,96702.34
2022-12-18T01:06:09.767Z,96701.09
2022-12-18T01:08:36.256Z,96699.50
2022-12-18T01:11:11.086Z,96699.53
2022-12-18T01:13:37.879Z,96690.75
2022-12-18T01:16:04.790Z,96697.81
2022-12-18T01:18:31.606Z,96699.78
2022-12-18T01:20:58.973Z,96696.78
2022-12-18T01:23:28.469Z,96693.00
2022-12-18T01:25:54.879Z,96697.66
2022-12-18T01:28:21.283Z,96699.69
2022-12-18T01:30:47.693Z,96701.84
2022-12-18T01:33:15.115Z,96693.91
2022-12-18T01:35:42.882Z,96698.66
2022-12-18T01:38:09.637Z,96702.66
2022-12-18T01:40:36.254Z,96703.13
2022-12-18T01:43:03.200Z,96706.81
2022-12-18T01:45:30.681Z,96701.06
2022-12-18T01:48:00.288Z,96708.00
2022-12-18T01:50:33.515Z,96705.41
2022-12-18T01:53:05.028Z,96703.13
2022-12-18T01:55:33.124Z,96693.31
2022-12-18T01:58:01.263Z,96700.16
2022-12-18T02:00:28.120Z,96692.44
2022-12-18T02:02:55.357Z,96678.41
2022-12-18T02:05:35.026Z,96685.66
2022-12-18T02:08:02.424Z,96692.59
2022-12-18T02:10:36.702Z,96694.09
2022-12-18T02:13:11.987Z,96698.88
2022-12-18T02:15:38.779Z,96700.28
2022-12-18T02:18:11.348Z,96696.41
2022-12-18T02:20:44.456Z,96704.63
2022-12-18T02:23:27.762Z,96707.16
2022-12-18T02:26:20.803Z,96697.25
2022-12-18T02:28:55.521Z,96693.06
2022-12-18T02:31:24.746Z,96700.81
2022-12-18T02:33:53.312Z,96705.16
2022-12-18T02:36:23.625Z,96703.84
2022-12-18T02:38:51.153Z,96710.41
2022-12-18T02:41:17.933Z,96713.59
2022-12-18T02:44:05.425Z,96712.53
2022-12-18T02:46:35.503Z,96709.34
2022-12-18T02:49:16.311Z,96710.13
2022-12-18T02:51:51.496Z,96715.72
2022-12-18T02:54:38.652Z,96718.34
2022-12-18T02:57:17.415Z,96719.47
2022-12-18T02:59:50.819Z,96713.28
2022-12-18T03:02:20.529Z,96714.38
2022-12-18T03:04:55.811Z,96716.59
2022-12-18T03:07:33.332Z,96713.34
2022-12-18T03:10:01.345Z,96700.56
2022-12-18T03:12:31.637Z,96695.63
2022-12-18T03:15:04.510Z,96696.81
2022-12-18T03:17:32.777Z,96696.00
2022-12-18T03:20:02.335Z,96702.53
2022-12-18T03:22:34.626Z,96706.81
2022-12-18T03:25:03.099Z,96722.69
2022-12-18T03:27:30.978Z,96722.59
2022-12-18T03:30:09.941Z,96712.38
2022-12-18T03:32:45.580Z,96709.94
2022-12-18T03:35:14.507Z,96703.06
2022-12-18T03:37:41.057Z,96711.56
2022-12-18T03:40:08.781Z,96717.69
2022-12-18T03:42:44.950Z,96715.31
2022-12-18T03:45:11.429Z,96711.94
2022-12-18T03:47:43.893Z,96713.69
2022-12-18T03:50:21.776Z,96712.53
2022-12-18T03:52:56.631Z,96705.84
2022-12-18T03:55:24.495Z,96707.22
2022-12-18T03:57:58.522Z,96704.69
2022-12-18T04:00:29.212Z,96699.66
2022-12-18T04:03:05.696Z,96693.81
2022-12-18T04:05:39.787Z,96694.84
2022-12-18T04:08:08.014Z,96698.19
2022-12-18T04:10:38.161Z,96701.50
2022-12-18T04:13:04.866Z,96706.69
2022-12-18T04:15:32.920Z,96714.38
2022-12-18T04:17:59.536Z,96719.22
2022-12-18T04:20:32.641Z,96719.53
2022-12-18T04:22:59.077Z,96708.63
2022-12-18T04:25:25.867Z,96713.66
2022-12-18T04:28:04.522Z,96710.50
2022-12-18T04:30:30.938Z,96719.03
2022-12-18T04:32:57.934Z,96708.44
2022-12-18T04:35:24.950Z,96706.97
2022-12-18T04:37:51.846Z,96713.75
2022-12-18T04:40:18.323Z,96722.00
2022-12-18T04:42:47.103Z,96722.81
2022-12-18T04:45:13.584Z,96717.56
2022-12-18T04:47:40.119Z,96720.59
2022-12-18T04:50:06.818Z,96720.78
2022-12-18T04:52:33.335Z,96725.88
2022-12-18T04:54:59.868Z,96722.66
2022-12-18T04:57:27.059Z,96723.28
2022-12-18T04:59:53.732Z,96715.22
2022-12-18T05:02:20.335Z,96707.31
2022-12-18T05:04:46.795Z,96694.81
2022-12-18T05:07:13.191Z,96697.78
2022-12-18T05:09:39.566Z,96679.88
2022-12-18T05:12:06.176Z,96676.50
2022-12-18T05:14:32.608Z,96684.25
2022-12-18T05:17:01.023Z,96696.88
2022-12-18T05:19:27.798Z,96701.06
2022-12-18T05:21:54.217Z,96694.09
2022-12-18T05:24:20.633Z,96692.56
2022-12-18T05:26:47.411Z,96699.44
2022-12-18T05:29:14.069Z,96684.09
2022-12-18T05:31:40.856Z,96696.09
2022-12-18T05:34:08.879Z,96701.38
2022-12-18T05:36:35.459Z,96704.53
2022-12-18T05:39:01.913Z,96695.72
2022-12-18T05:41:28.464Z,96712.09
2022-12-18T05:43:55.132Z,96714.38
2022-12-18T05:46:21.856Z,96705.34
2022-12-18T05:48:49.123Z,96706.16
2022-12-18T05:51:16.757Z,96699.31
2022-12-18T05:53:44.038Z,96691.25
2022-12-18T05:56:15.637Z,96688.88
2022-12-18T05:58:42.655Z,96700.75
2022-12-18T06:01:14.837Z,96698.19
2022-12-18T06:03:41.627Z,96705.13
2022-12-18T06:06:19.481Z,96702.53
2022-12-18T06:08:46.712Z,96708.81
2022-12-18T06:11:14.180Z,96712.78
2022-12-18T06:13:40.836Z,96716.97
2022-12-18T06:16:09.354Z,96713.28
2022-12-18T06:18:35.812Z,96712.09
2022-12-18T06:21:02.822Z,96726.63
2022-12-18T06:23:29.323Z,96726.16
2022-12-18T06:25:56.249Z,96727.69
2022-12-18T06:28:22.702Z,96735.84
2022-12-18T06:30:49.508Z,96733.78
2022-12-18T06:33:16.220Z,96724.03
2022-12-18T06:35:42.806Z,96734.22
2022-12-18T06:38:09.505Z,96740.81
2022-12-18T06:40:37.535Z,96744.13
2022-12-18T06:43:04.002Z,96742.09
2022-12-18T06:45:30.469Z,96757.34
2022-12-18T06:47:56.875Z,96758.13
2022-12-18T06:50:23.920Z,96753.84
2022-12-18T06:52:50.343Z,96746.25
2022-12-18T06:55:16.971Z,96753.63
2022-12-18T06:57:43.419Z,96760.25
2022-12-18T07:00:10.375Z,96762.09
2022-12-18T07:02:36.975Z,96758.38
2022-12-18T07:05:10.320Z,96770.75
2022-12-18T07:07:37.475Z,96772.09
2022-12-18T07:10:04.091Z,96775.56
2022-12-18T07:12:31.054Z,96774.78
2022-12-18T07:14:57.502Z,96778.19
2022-12-18T07:17:24.005Z,96788.31
2022-12-18T07:19:50.647Z,96790.53
2022-12-18T07:22:17.438Z,96791.78
2022-12-18T07:24:43.943Z,96789.69
2022-12-18T07:27:15.287Z,96793.56
2022-12-18T07:29:42.047Z,96788.16
2022-12-18T07:32:09.617Z,96789.47
2022-12-18T07:34:38.208Z,96789.53
2022-12-18T07:37:05.498Z,96787.78
2022-12-18T07:39:32.156Z,96790.94
2022-12-18T07:42:18.083Z,96790.31
2022-12-18T07:44:45.083Z,96788.47
2022-12-18T07:47:12.287Z,96787.13
2022-12-18T07:49:39.115Z,96779.44
2022-12-18T07:52:05.618Z,96782.53
2022-12-18T07:54:32.196Z,96782.28
2022-12-18T07:57:00.169Z,96787.69
2022-12-18T07:59:27.738Z,96778.50
2022-12-18T08:01:54.657Z,96781.56
2022-12-18T08:04:21.481Z,96785.50
2022-12-18T08:06:48.522Z,96792.91
2022-12-18T08:09:15.249Z,96791.00
2022-12-18T08:11:41.863Z,96793.09
2022-12-18T08:14:08.443Z,96788.59
2022-12-18T08:16:35.009Z,96787.38
2022-12-18T08:19:01.545Z,96794.38
2022-12-18T08:21:29.016Z,96789.53
2022-12-18T08:23:56.602Z,96794.09
2022-12-18T08:26:23.487Z,96791.97
2022-12-18T08:28:50.862Z,96792.59
2022-12-18T08:31:17.721Z,96800.44
2022-12-18T08:33:44.488Z,96794.78
2022-12-18T08:36:17.400Z,96799.13
2022-12-18T08:38:49.125Z,96801.66
2022-12-18T08:41:17.000Z,96812.88
2022-12-18T08:44:03.100Z,96816.69
2022-12-18T08:46:41.791Z,96819.34
2022-12-18T08:49:09.106Z,96814.63
2022-12-18T08:51:37.006Z,96809.13
2022-12-18T08:54:04.563Z,96803.91
2022-12-18T08:56:33.988Z,96794.38
2022-12-18T08:59:00.566Z,96795.97
2022-12-18T09:01:27.666Z,96796.16
2022-12-18T09:03:54.256Z,96797.72
2022-12-18T09:06:21.804Z,96791.63
2022-12-18T09:08:48.345Z,96782.38
2022-12-18T09:11:25.023Z,96779.00
2022-12-18T09:13:51.817Z,96766.38
2022-12-18T09:16:18.585Z,96777.19
2022-12-18T09:18:45.043Z,96767.34
2022-12-18T09:21:16.087Z,96761.84
2022-12-18T09:23:42.759Z,96768.91
2022-12-18T09:26:09.414Z,96761.31
2022-12-18T09:28:35.869Z,96761.16
2022-12-18T09:31:07.631Z,96768.66
2022-12-18T09:33:34.904Z,96763.84
2022-12-18T09:36:02.573Z,96762.22
2022-12-18T09:38:29.166Z,96771.03
2022-12-18T09:41:00.345Z,96768.69
2022-12-18T09:43:29.312Z,96764.41
2022-12-18T09:46:07.517Z,96767.91
2022-12-18T09:48:39.417Z,96769.66
2022-12-18T09:51:11.888Z,96769.41
2022-12-18T09:53:40.992Z,96766.09
2022-12-18T09:56:12.245Z,96774.25
2022-12-18T09:58:43.267Z,96766.16
2022-12-18T10:01:15.575Z,96783.41
2022-12-18T10:03:45.004Z,96777.97
2022-12-18T10:06:30.399Z,96779.31
2022-12-18T10:09:03.939Z,96782.41
2022-12-18T10:11:44.537Z,96777.72
2022-12-18T10:14:16.601Z,96785.31
2022-12-18T10:17:01.726Z,96784.53
2022-12-18T10:19:35.774Z,96789.97
2022-12-18T10:22:17.514Z,96783.34
2022-12-18T10:24:55.689Z,96779.00
2022-12-18T10:27:29.719Z,96775.81
2022-12-18T10:29:56.709Z,96782.94
2022-12-18T10:32:27.445Z,96789.59
2022-12-18T10:35:00.175Z,96783.56
2022-12-18T10:37:28.764Z,96775.09
2022-12-18T10:40:19.872Z,96777.41
2022-12-18T10:43:16.026Z,96781.81
2022-12-18T10:45:43.125Z,96775.22
2022-12-18T10:48:20.232Z,96776.22
2022-12-18T10:51:10.216Z,96766.25
2022-12-18T10:53:37.033Z,96769.09
2022-12-18T10:56:05.470Z,96770.03
2022-12-18T10:58:33.537Z,96768.75
2022-12-18T11:01:23.499Z,96762.56
2022-12-18T11:04:01.654Z,96756.97
2022-12-18T11:06:29.158Z,96750.75
2022-12-18T11:09:08.017Z,96744.06
2022-12-18T11:11:39.831Z,96735.09
2022-12-18T11:14:07.568Z,96733.41
2022-12-18T11:16:36.761Z,96725.88
2022-12-18T11:19:14.380Z,96732.50
2022-12-18T11:21:42.388Z,96727.84
2022-12-18T11:24:18.684Z,96731.19
2022-12-18T11:26:45.112Z,96727.78
2022-12-18T11:29:16.837Z,96729.06
2022-12-18T11:31:44.804Z,96727.22
2022-12-18T11:34:31.501Z,96725.44
2022-12-18T11:37:02.382Z,96724.47
2022-12-18T11:39:49.048Z,96716.94
2022-12-18T11:42:20.883Z,96716.72
2022-12-18T11:45:07.561Z,96710.59
2022-12-18T11:47:40.047Z,96705.59
2022-12-18T11:50:13.618Z,96709.31
2022-12-18T11:52:41.079Z,96704.75
2022-12-18T11:55:33.350Z,96702.59
2022-12-18T11:58:18.572Z,96709.78
2022-12-18T12:00:50.580Z,96711.34
2022-12-18T12:03:25.146Z,96713.25
2022-12-18T12:06:08.552Z,96718.69
2022-12-18T12:08:53.981Z,96709.59
2022-12-18T12:11:27.061Z,96708.06
2022-12-18T12:14:04.614Z,96700.75
2022-12-18T12:16:36.288Z,96694.28
2022-12-18T12:19:07.576Z,96700.38
2022-12-18T12:21:42.051Z,96693.75
2022-12-18T12:24:08.465Z,96692.53
2022-12-18T12:26:42.284Z,96689.97
2022-12-18T12:29:20.844Z,96691.88
2022-12-18T12:31:47.693Z,96677.84
2022-12-18T12:34:20.296Z,96680.56
2022-12-18T12:36:54.611Z,96689.13
2022-12-18T12:39:24.024Z,96681.94
2022-12-18T12:42:08.989Z,96682.16
2022-12-18T12:44:51.251Z,96683.69
2022-12-18T12:47:29.440Z,96691.09
2022-12-18T12:49:57.619Z,96694.41
2022-12-18T12:52:40.869Z,96700.13
2022-12-18T12:55:14.962Z,96701.34
2022-12-18T12:57:46.692Z,96702.81
2022-12-18T13:00:20.128Z,96709.00
2022-12-18T13:02:59.410Z,96700.41
2022-12-18T13:05:35.051Z,96708.41
2022-12-18T13:08:09.637Z,96719.28
2022-12-18T13:10:43.540Z,96724.69
2022-12-18T13:13:11.540Z,96723.38
2022-12-18T13:15:48.564Z,96722.47
2022-12-18T13:18:18.064Z,96713.00
2022-12-18T13:20:55.222Z,96727.63
2022-12-18T13:23:26.695Z,96725.28
2022-12-18T13:25:57.294Z,96731.44
2022-12-18T13:28:42.659Z,96730.72
2022-12-18T13:31:09.187Z,96716.84
2022-12-18T13:33:35.597Z,96715.06
2022-12-18T13:36:26.366Z,96706.34
2022-12-18T13:39:11.968Z,96714.34
2022-12-18T13:41:38.929Z,96721.28
2022-12-18T13:44:24.195Z,96713.97
2022-12-18T13:46:53.399Z,96713.13
2022-12-18T13:49:24.824Z,96718.91
2022-12-18T13:51:52.595Z,96706.72
2022-12-18T13:54:21.208Z,96708.72
2022-12-18T13:56:49.361Z,96695.59
2022-12-18T13:59:18.954Z,96708.34
2022-12-18T14:01:51.366Z,96703.47
2022-12-18T14:04:22.644Z,96706.13
2022-12-18T14:06:51.133Z,96695.53
2022-12-18T14:09:24.675Z,96707.06
2022-12-18T14:11:51.905Z,96706.03
2022-12-18T14:14:18.956Z,96697.53
2022-12-18T14:16:47.580Z,96697.06
2022-12-18T14:19:18.881Z,96691.66
2022-12-18T14:21:49.071Z,96695.13
2022-12-18T14:24:19.474Z,96692.28
2022-12-18T14:26:46.626Z,96683.91
2022-12-18T14:29:28.047Z,96693.41
2022-12-18T14:32:08.430Z,96691.59
2022-12-18T14:34:38.629Z,96694.75
2022-12-18T14:37:05.460Z,96689.81
2022-12-18T14:39:31.914Z,96701.13
2022-12-18T14:41:58.338Z,96699.88
2022-12-18T14:44:25.311Z,96703.16
2022-12-18T14:46:51.862Z,96702.41
2022-12-18T14:49:24.410Z,96700.84
2022-12-18T14:51:52.997Z,96693.16
2022-12-18T14:54:20.760Z,96701.22
2022-12-18T14:56:49.298Z,96701.25
2022-12-18T14:59:22.338Z,96710.06
2022-12-18T15:02:02.059Z,96701.66
2022-12-18T15:04:36.896Z,96707.69
2022-12-18T15:07:09.933Z,96717.44
2022-12-18T15:09:37.221Z,96712.16
2022-12-18T15:12:03.964Z,96709.25
2022-12-18T15:14:35.820Z,96722.59
2022-12-18T15:17:04.508Z,96713.88
2022-12-18T15:19:39.782Z,96719.31
2022-12-18T15:22:17.904Z,96710.56
2022-12-18T15:24:44.366Z,96709.41
2022-12-18T15:27:25.256Z,96704.09
2022-12-18T15:30:10.073Z,96705.25
2022-12-18T15:32:37.588Z,96706.66
2022-12-18T15:35:24.299Z,96711.19
2022-12-18T15:37:51.614Z,96718.16
2022-12-18T15:40:22.420Z,96708.16
2022-12-18T15:43:08.324Z,96707.47
2022-12-18T15:45:36.633Z,96711.28
2022-12-18T15:48:03.122Z,96716.25
2022-12-18T15:50:29.803Z,96712.63
2022-12-18T15:52:57.485Z,96719.81
2022-12-18T15:55:43.167Z,96720.78
2022-12-18T15:58:10.796Z,96722.22
2022-12-18T16:00:38.829Z,96720.06
2022-12-18T16:03:05.618Z,96722.03
2022-12-18T16:05:32.565Z,96719.44
2022-12-18T16:07:59.202Z,96732.59
2022-12-18T16:10:26.084Z,96727.63
2022-12-18T16:12:52.739Z,96729.38
2022-12-18T16:15:24.308Z,96729.22
2022-12-18T16:17:51.298Z,96728.63
2022-12-18T16:20:18.849Z,96730.66
2022-12-18T16:22:46.875Z,96725.25
2022-12-18T16:25:17.976Z,96728.25
2022-12-18T16:27:44.410Z,96732.69
2022-12-18T16:30:16.062Z,96728.59
2022-12-18T16:32:42.845Z,96727.19
2022-12-18T16:35:13.505Z,96718.91
2022-12-18T16:37:40.644Z,96717.81
2022-12-18T16:40:09.823Z,96718.47
2022-12-18T16:42:37.369Z,96720.59
2022-12-18T16:45:04.508Z,96719.16
2022-12-18T16:47:30.942Z,96718.47
2022-12-18T16:49:57.353Z,96715.69
2022-12-18T16:52:24.067Z,96721.50
2022-12-18T16:54:50.439Z,96723.78
2022-12-18T16:57:18.458Z,96712.03
2022-12-18T16:59:45.111Z,96712.44
2022-12-18T17:02:13.881Z,96715.81
2022-12-18T17:04:40.351Z,96704.16
2022-12-18T17:07:06.776Z,96699.28
2022-12-18T17:09:33.526Z,96700.34
2022-12-18T17:12:04.007Z,96703.09
2022-12-18T17:14:31.943Z,96696.75
2022-12-18T17:17:20.312Z,96700.28
2022-12-18T17:19:46.495Z,96700.16
2022-12-18T17:22:12.981Z,96694.25
2022-12-18T17:24:39.454Z,96693.75
2022-12-18T17:27:05.993Z,96697.09
2022-12-18T17:29:32.541Z,96691.88
2022-12-18T17:32:00.289Z,96680.66
2022-12-18T17:34:27.250Z,96675.78
2022-12-18T17:36:53.803Z,96687.81
2022-12-18T17:39:20.963Z,96681.19
2022-12-18T17:41:47.786Z,96692.22
2022-12-18T17:44:14.317Z,96683.06
2022-12-18T17:46:40.918Z,96676.31
2022-12-18T17:49:07.403Z,96679.78
2022-12-18T17:51:34.025Z,96686.34
2022-12-18T17:54:00.534Z,96695.34
2022-12-18T17:56:27.512Z,96688.25
2022-12-18T17:58:54.071Z,96694.75
2022-12-18T18:01:21.840Z,96698.97
2022-12-18T18:03:51.539Z,96685.13
2022-12-18T18:06:20.356Z,96686.94
2022-12-18T18:08:46.845Z,96692.75
2022-12-18T18:11:33.114Z,96693.78
2022-12-18T18:14:03.109Z,96690.22
2022-12-18T18:16:34.568Z,96691.06
2022-12-18T18:19:01.569Z,96702.00
2022-12-18T18:21:28.722Z,96699.56
2022-12-18T18:23:55.711Z,96695.06
2022-12-18T18:26:22.542Z,96684.34
2022-12-18T18:28:53.856Z,96683.59
2022-12-18T18:31:20.927Z,96690.28
2022-12-18T18:33:47.784Z,96686.94
2022-12-18T18:36:14.599Z,96684.28
2022-12-18T18:38:45.356Z,96689.81
2022-12-18T18:41:14.655Z,96692.03
2022-12-18T18:43:41.680Z,96691.19
2022-12-18T18:46:11.279Z,96688.50
2022-12-18T18:48:37.843Z,96685.47
2022-12-18T18:51:07.019Z,96697.88
2022-12-18T18:53:38.253Z,96698.47
2022-12-18T18:56:37.739Z,96704.13
2022-12-18T18:58:52.128Z,96704.53
2022-12-18T19:01:19.606Z,96707.09
2022-12-18T19:03:46.265Z,96698.53
2022-12-18T19:06:14.362Z,96698.00
2022-12-18T19:08:41.070Z,96698.25
2022-12-18T19:11:31.737Z,96703.03
2022-12-18T19:14:03.324Z,96692.03
2022-12-18T19:16:31.882Z,96697.94
2022-12-18T19:19:01.520Z,96683.78
2022-12-18T19:21:28.913Z,96677.78
2022-12-18T19:23:57.939Z,96688.81
2022-12-18T19:26:27.805Z,96697.47
2022-12-18T19:28:54.644Z,96694.53
2022-12-18T19:31:25.435Z,96675.66
2022-12-18T19:33:53.658Z,96674.66
2022-12-18T19:36:22.491Z,96670.66
2022-12-18T19:38:50.282Z,96671.13
2022-12-18T19:41:17.839Z,96657.50
2022-12-18T19:43:45.684Z,96643.38
2022-12-18T19:46:17.240Z,96645.34
2022-12-18T19:48:45.157Z,96637.59
2022-12-18T19:51:14.617Z,96642.00
2022-12-18T19:53:41.084Z,96646.59
2022-12-18T19:56:08.094Z,96642.72
2022-12-18T19:58:34.707Z,96637.19
2022-12-18T20:01:01.622Z,96641.47
2022-12-18T20:03:32.697Z,96622.81
2022-12-18T20:06:14.770Z,96632.53
2022-12-18T20:08:41.535Z,96615.00
2022-12-18T20:11:07.951Z,96617.59
2022-12-18T20:13:34.664Z,96610.22
2022-12-18T20:16:01.243Z,96606.47
2022-12-18T20:18:28.029Z,96605.75
2022-12-18T20:20:55.505Z,96595.13
2022-12-18T20:23:24.992Z,96596.66
2022-12-18T20:25:54.520Z,96586.13
2022-12-18T20:28:21.693Z,96594.50
2022-12-18T20:30:48.191Z,96584.41
2022-12-18T20:33:15.149Z,96590.34
2022-12-18T20:35:41.507Z,96586.00
2022-12-18T20:38:08.020Z,96586.28
2022-12-18T20:40:35.937Z,96584.56
2022-12-18T20:43:02.812Z,96580.41
2022-12-18T20:45:29.262Z,96572.28
2022-12-18T20:47:55.689Z,96570.78
2022-12-18T20:50:22.126Z,96573.63
2022-12-18T20:52:48.549Z,96575.38
2022-12-18T20:55:14.967Z,96578.31
2022-12-18T20:57:41.353Z,96597.47
2022-12-18T21:00:08.135Z,96623.34
2022-12-18T21:02:35.740Z,96611.06
2022-12-18T21:05:02.345Z,96610.00
2022-12-18T21:07:28.804Z,96610.91
2022-12-18T21:09:55.259Z,96606.88
2022-12-18T21:12:40.477Z,96619.66
2022-12-18T21:15:11.968Z,96627.34
2022-12-18T21:17:44.544Z,96612.97
2022-12-18T21:20:17.565Z,96605.34
2022-12-18T21:22:45.032Z,96610.00
2022-12-18T21:25:11.455Z,96607.50
2022-12-18T21:27:37.870Z,96618.75
2022-12-18T21:30:04.656Z,96618.50
2022-12-18T21:32:33.431Z,96612.88
2022-12-18T21:35:00.261Z,96613.19
2022-12-18T21:37:26.759Z,96608.94
2022-12-18T21:39:53.267Z,96605.66
2022-12-18T21:42:38.622Z,96607.03
2022-12-18T21:45:05.161Z,96597.22
2022-12-18T21:47:31.604Z,96591.53
2022-12-18T21:49:58.061Z,96592.59
2022-12-18T21:52:31.359Z,96596.41
2022-12-18T21:55:03.272Z,96589.09
2022-12-18T21:57:34.723Z,96585.69
2022-12-18T22:00:02.117Z,96582.34
2022-12-18T22:02:39.351Z,96578.16
2022-12-18T22:05:06.334Z,96576.97
2022-12-18T22:07:33.466Z,96564.25
2022-12-18T22:09:59.932Z,96561.94
2022-12-18T22:12:43.299Z,96565.63
2022-12-18T22:15:11.867Z,96561.06
2022-12-18T22:17:40.348Z,96573.91
2022-12-18T22:20:08.823Z,96569.25
2022-12-18T22:22:35.248Z,96574.44
2022-12-18T22:25:02.292Z,96577.00
2022-12-18T22:27:28.831Z,96576.88
2022-12-18T22:30:04.387Z,96583.06
2022-12-18T22:32:34.975Z,96564.47
2022-12-18T22:35:08.043Z,96569.81
2022-12-18T22:37:37.183Z,96577.59
2022-12-18T22:40:05.119Z,96594.31
2022-12-18T22:42:32.526Z,96578.16
2022-12-18T22:45:00.274Z,96578.19
2022-12-18T22:47:30.128Z,96587.97
2022-12-18T22:49:57.392Z,96581.16
2022-12-18T22:52:25.025Z,96575.38
2022-12-18T22:54:53.120Z,96583.56
2022-12-18T22:57:20.500Z,96583.56
2022-12-18T22:59:46.896Z,96586.56
2022-12-18T23:02:13.471Z,96588.53
2022-12-18T23:04:40.059Z,96584.47
2022-12-18T23:07:06.563Z,96579.13
2022-12-18T23:09:33.159Z,96583.53
2022-12-18T23:11:59.959Z,96589.19
2022-12-18T23:14:26.710Z,96587.56
2022-12-18T23:16:53.381Z,96593.34
2022-12-18T23:19:20.437Z,96587.44
2022-12-18T23:21:47.018Z,96594.88
2022-12-18T23:24:13.528Z,96590.13
2022-12-18T23:26:40.035Z,96593.78
2022-12-18T23:29:06.490Z,96594.69
2022-12-18T23:31:34.035Z,96588.19
2022-12-18T23:34:01.408Z,96582.09
2022-12-18T23:36:28.269Z,96594.00
2022-12-18T23:38:57.593Z,96591.28
2022-12-18T23:41:25.459Z,96584.72
2022-12-18T23:43:52.381Z,96594.16
2022-12-18T23:46:19.055Z,96592.69
2022-12-18T23:48:45.875Z,96581.94
2022-12-18T23:51:13.810Z,96598.50
2022-12-18T23:53:40.658Z,96591.50
2022-12-18T23:56:08.466Z,96589.34
2022-12-18T23:58:35.861Z,96592.84
